Fire Weather Observation
Issued by NWS Grand Junction, CO

Home | Current Version | Previous Version | Graphics & Text | Print | Product List | Glossary On
Versions: 1 2 3 4 5 6 7 8 9 10 11 12 13 14 15 16 17 18 19 20 21 22 23 24 25 26 27 28 29
000
SHUS65 KGJT 272020
FWOGJT

DAILY FIRE WEATHER OBSERVATION
NATIONAL WEATHER SERVICE GRAND JUNCTION CO
220 PM MDT TUE JUN 27 2017

STATE OF THE WEATHER (W)               0
DRY BULB TEMPERATURE                   96   DEGREES FAHRENHEIT
RELATIVE HUMIDITY (RH)                 6    PERCENT
LIGHTNING ACTIVITY LEVEL
  (LAL - MIDNIGHT TO 2 PM)             1
WIND DIRECTION                         270  DEGREES (C IF CALM)
WIND SPEED                             21   MPH
MAX TEMP (2 PM - 2 PM)                 99   DEGREES FAHRENHEIT
MIN TEMP (2 PM - 2 PM)                 67   DEGREES FAHRENHEIT
MAX RH (2 PM - 2 PM)                   25   PERCENT
MIN RH (2 PM - 2 PM)                   5    PERCENT
PCPN DURATION                          0.0  HOURS
PCPN AMT (2 PM - 2 PM)                 0.0  INCHES
LAL (2 PM - 2 PM)                      1

$$

METAR KGJT 271953Z 28018G26KT 9SM CLR 36/M08 A2989 RMK AO2 PK
      WND 27026/1952 SLP033 T03561078



USA.gov is the U.S. government's official web portal to all federal, state and local government web resources and services.